Time;durP1;ratioP1;P1;durP2;ratioP2;P2;SDS_P1;SDS_P2;PMS_P1;PMS_P2;Temp;Humidity;BMP_temperature;BMP_pressure;BME280_temperature;BME280_humidity;BME280_pressure;Samples;Min_cycle;Max_cycle;Signal;HPM_P1;HPM_P2
2022/11/30 00:00:13;;;;;;;38.53;23.47;;;;;;;7.69;100.00;100769.03;5085883;28;20543;-68
2022/11/30 00:02:39;;;;;;;37.43;23.63;;;;;;;7.66;100.00;100769.28;5076530;28;20512;-69
2022/11/30 00:05:07;;;;;;;38.13;22.57;;;;;;;7.66;100.00;100774.59;5084304;28;20485;-69
2022/11/30 00:07:33;;;;;;;33.80;22.13;;;;;;;7.62;100.00;100775.75;5089300;28;20463;-66
2022/11/30 00:10:01;;;;;;;37.63;22.77;;;;;;;7.68;100.00;100770.88;5074606;28;20453;-68
2022/11/30 00:12:28;;;;;;;40.73;22.67;;;;;;;7.59;100.00;100770.69;5066506;28;20547;-68
2022/11/30 00:14:55;;;;;;;39.23;24.03;;;;;;;7.60;100.00;100762.56;5083829;28;20472;-69
2022/11/30 00:17:22;;;;;;;42.07;22.83;;;;;;;7.56;100.00;100766.41;5086564;28;20499;-69
2022/11/30 00:19:48;;;;;;;38.90;23.90;;;;;;;7.48;100.00;100769.63;5098940;28;20539;-66
2022/11/30 00:22:15;;;;;;;40.30;24.33;;;;;;;7.46;100.00;100763.53;5096384;28;20473;-67
2022/11/30 00:24:41;;;;;;;40.83;26.10;;;;;;;7.49;100.00;100767.81;5100206;28;20483;-66
2022/11/30 00:27:09;;;;;;;41.30;25.07;;;;;;;7.49;100.00;100768.66;5084551;28;20539;-67
2022/11/30 00:29:43;;;;;;;36.03;23.10;;;;;;;7.39;100.00;100767.59;5072460;28;20791;-68
2022/11/30 00:32:14;;;;;;;44.77;25.80;;;;;;;7.49;100.00;100763.34;5071466;28;20509;-69
2022/11/30 00:34:41;;;;;;;43.10;26.10;;;;;;;7.64;100.00;100765.88;5095251;28;20444;-68
2022/11/30 00:37:07;;;;;;;42.27;24.83;;;;;;;7.64;100.00;100776.53;5098169;28;20480;-68
2022/11/30 00:39:34;;;;;;;51.50;27.40;;;;;;;7.65;100.00;100763.09;5083340;28;20528;-68
2022/11/30 00:42:01;;;;;;;40.40;24.97;;;;;;;7.61;100.00;100769.59;5092366;28;20561;-66
2022/11/30 00:44:29;;;;;;;43.57;25.77;;;;;;;7.55;100.00;100772.69;5091769;28;20488;-68
2022/11/30 00:46:55;;;;;;;49.20;25.27;;;;;;;7.57;100.00;100772.56;5087048;28;20586;-66
2022/11/30 00:49:22;;;;;;;44.63;26.37;;;;;;;7.69;100.00;100777.03;5102610;28;20534;-68
2022/11/30 00:51:48;;;;;;;42.77;25.97;;;;;;;7.59;100.00;100774.19;5082534;28;20503;-67
2022/11/30 00:54:15;;;;;;;44.97;25.47;;;;;;;7.51;100.00;100782.69;5082975;28;21072;-68
2022/11/30 00:56:42;;;;;;;43.73;25.47;;;;;;;7.55;100.00;100775.34;5081889;28;20476;-69
2022/11/30 00:59:08;;;;;;;41.70;24.87;;;;;;;7.49;100.00;100778.44;5082611;28;20486;-66
2022/11/30 01:01:36;;;;;;;44.67;25.37;;;;;;;7.54;100.00;100776.31;5086511;28;20479;-68
2022/11/30 01:04:05;;;;;;;46.27;27.53;;;;;;;7.57;100.00;100777.91;5082215;28;20485;-67
2022/11/30 01:06:32;;;;;;;47.03;25.73;;;;;;;7.52;100.00;100773.75;5095154;28;20903;-69
2022/11/30 01:08:58;;;;;;;45.97;24.63;;;;;;;7.57;100.00;100780.56;5102951;28;20462;-69
2022/11/30 01:11:26;;;;;;;44.47;25.80;;;;;;;7.53;100.00;100783.47;5095796;28;20496;-67
2022/11/30 01:13:54;;;;;;;40.67;25.93;;;;;;;7.53;100.00;100774.59;5093204;28;20502;-68
2022/11/30 01:16:22;;;;;;;43.40;26.60;;;;;;;7.61;100.00;100771.41;5099627;28;20511;-67
2022/11/30 01:18:50;;;;;;;41.90;24.60;;;;;;;7.47;100.00;100772.41;5082456;28;20529;-69
2022/11/30 01:21:19;;;;;;;43.63;22.20;;;;;;;7.54;100.00;100768.34;5082146;28;20476;-69
2022/11/30 01:23:46;;;;;;;45.53;24.53;;;;;;;7.49;100.00;100765.16;5081946;28;21110;-69
2022/11/30 01:26:13;;;;;;;43.10;23.23;;;;;;;7.43;100.00;100770.88;5081751;28;20523;-66
2022/11/30 01:28:42;;;;;;;44.37;23.47;;;;;;;7.45;100.00;100775.16;5081781;28;20469;-69
2022/11/30 01:31:10;;;;;;;41.70;23.37;;;;;;;7.39;100.00;100780.06;5095314;28;20511;-69
2022/11/30 01:33:37;;;;;;;44.93;22.13;;;;;;;7.39;100.00;100778.22;5089133;28;20520;-69
2022/11/30 01:36:07;;;;;;;44.93;21.87;;;;;;;7.46;100.00;100776.00;5084852;28;20475;-69
2022/11/30 01:38:35;;;;;;;42.03;23.40;;;;;;;7.43;100.00;100779.75;5102375;28;20473;-69
2022/11/30 01:41:02;;;;;;;37.27;21.70;;;;;;;7.46;100.00;100782.16;5078268;28;20492;-69
2022/11/30 01:43:39;;;;;;;36.47;20.20;;;;;;;7.50;100.00;100786.34;5081289;28;20452;-69
2022/11/30 01:46:18;;;;;;;45.10;22.23;;;;;;;7.26;100.00;100793.38;5081394;28;20572;-69
2022/11/30 01:48:44;;;;;;;45.50;22.27;;;;;;;7.39;100.00;100788.03;5081178;28;20501;-69
2022/11/30 01:51:12;;;;;;;40.33;20.67;;;;;;;7.48;100.00;100788.25;5081082;28;20488;-69
2022/11/30 01:53:39;;;;;;;42.60;24.43;;;;;;;7.37;100.00;100793.44;5082755;28;20951;-69
2022/11/30 01:56:06;;;;;;;45.50;22.80;;;;;;;7.34;100.00;100804.31;5101748;28;20544;-69
2022/11/30 01:58:35;;;;;;;43.83;22.07;;;;;;;7.31;100.00;100802.72;5086254;28;20490;-68
2022/11/30 02:01:02;;;;;;;44.13;23.33;;;;;;;7.14;100.00;100798.56;5087808;28;20475;-64
2022/11/30 02:03:34;;;;;;;45.77;21.83;;;;;;;7.24;100.00;100797.91;5082947;28;20453;-64
2022/11/30 02:06:01;;;;;;;41.17;23.17;;;;;;;7.23;100.00;100802.38;5098331;28;20547;-69
2022/11/30 02:08:30;;;;;;;45.77;24.57;;;;;;;7.27;100.00;100795.03;5091562;28;20517;-67
2022/11/30 02:11:06;;;;;;;41.30;21.40;;;;;;;7.23;100.00;100804.22;5081457;28;20472;-69
2022/11/30 02:13:48;;;;;;;45.37;23.20;;;;;;;7.07;100.00;100804.41;5083001;28;20530;-69
2022/11/30 02:16:21;;;;;;;43.33;22.80;;;;;;;7.02;100.00;100798.56;5101435;28;20446;-69
2022/11/30 02:18:53;;;;;;;48.43;22.57;;;;;;;7.04;100.00;100802.78;5093863;28;20456;-69
2022/11/30 02:21:24;;;;;;;44.80;22.87;;;;;;;7.14;100.00;100795.91;5101664;28;20522;-70
2022/11/30 02:24:08;;;;;;;48.07;23.07;;;;;;;7.14;100.00;100803.88;5086290;28;20471;-67
2022/11/30 02:26:44;;;;;;;40.23;21.30;;;;;;;7.14;100.00;100798.56;5087096;28;20479;-68
2022/11/30 02:29:16;;;;;;;43.60;23.07;;;;;;;7.11;100.00;100804.06;5089619;28;21110;-69
2022/11/30 02:31:47;;;;;;;43.27;21.27;;;;;;;7.23;100.00;100799.72;5101246;28;20515;-69
2022/11/30 02:34:15;;;;;;;49.60;23.00;;;;;;;7.22;100.00;100803.38;5082737;28;20547;-69
2022/11/30 02:36:42;;;;;;;42.70;22.13;;;;;;;7.26;100.00;100793.38;5092691;28;20458;-69
2022/11/30 02:39:10;;;;;;;39.30;22.77;;;;;;;7.13;100.00;100788.03;5089622;28;20492;-68
2022/11/30 02:41:37;;;;;;;44.90;22.70;;;;;;;7.18;100.00;100793.03;5060737;28;20480;-66
2022/11/30 02:44:05;;;;;;;41.37;20.97;;;;;;;7.18;100.00;100793.88;5089145;28;20459;-69
2022/11/30 02:46:37;;;;;;;39.50;21.40;;;;;;;7.03;100.00;100797.56;5085373;28;20471;-65
2022/11/30 02:49:07;;;;;;;39.37;20.00;;;;;;;7.08;100.00;100796.34;5084671;28;20487;-69
2022/11/30 02:51:36;;;;;;;43.77;21.10;;;;;;;7.19;100.00;100794.72;5085191;28;20492;-67
2022/11/30 02:54:02;;;;;;;42.73;20.00;;;;;;;7.12;100.00;100794.31;5086209;28;20953;-66
2022/11/30 02:56:29;;;;;;;43.10;21.53;;;;;;;7.12;100.00;100796.97;5088747;28;21226;-69
2022/11/30 02:58:56;;;;;;;45.53;23.00;;;;;;;7.05;100.00;100796.53;5104363;28;20538;-69
2022/11/30 03:01:23;;;;;;;43.80;20.43;;;;;;;7.11;100.00;100797.91;5104218;28;20475;-69
2022/11/30 03:03:51;;;;;;;48.53;22.03;;;;;;;7.10;100.00;100804.19;5104492;28;20983;-68
2022/11/30 03:06:17;;;;;;;43.00;22.23;;;;;;;7.10;100.00;100796.19;5105700;28;20455;-68
2022/11/30 03:08:44;;;;;;;36.43;20.40;;;;;;;7.13;100.00;100803.97;5085554;28;20495;-66
2022/11/30 03:11:10;;;;;;;42.10;22.27;;;;;;;7.09;100.00;100806.00;5092038;28;20463;-69
2022/11/30 03:13:37;;;;;;;45.83;22.67;;;;;;;7.09;100.00;100803.34;5087487;28;20516;-61
2022/11/30 03:16:08;;;;;;;41.20;21.17;;;;;;;7.12;100.00;100810.25;5084978;28;20511;-61
2022/11/30 03:18:34;;;;;;;47.80;23.63;;;;;;;7.00;100.00;100814.59;5088210;28;20443;-61
2022/11/30 03:21:05;;;;;;;43.30;22.63;;;;;;;7.13;100.00;100806.63;5095875;28;20553;-61
2022/11/30 03:23:31;;;;;;;41.27;21.43;;;;;;;7.05;100.00;100815.16;5093087;28;20460;-60
2022/11/30 03:26:00;;;;;;;41.40;21.30;;;;;;;7.12;100.00;100807.59;5084183;28;20459;-61
2022/11/30 03:28:26;;;;;;;42.17;21.00;;;;;;;7.03;100.00;100814.41;5084314;28;20486;-61
2022/11/30 03:30:53;;;;;;;43.10;21.63;;;;;;;7.10;100.00;100807.72;5082972;28;20466;-61
2022/11/30 03:33:20;;;;;;;47.67;21.70;;;;;;;6.97;100.00;100813.00;5097453;28;20494;-61
2022/11/30 03:35:46;;;;;;;44.10;21.60;;;;;;;6.86;100.00;100804.06;5093743;28;20542;-61
2022/11/30 03:38:14;;;;;;;49.03;21.67;;;;;;;6.89;100.00;100809.13;5104493;28;20650;-60
2022/11/30 03:40:41;;;;;;;41.37;20.10;;;;;;;6.98;100.00;100801.41;5104210;28;21058;-61
2022/11/30 03:43:07;;;;;;;40.10;21.50;;;;;;;6.77;100.00;100809.03;5103198;28;20554;-61
2022/11/30 03:45:34;;;;;;;45.40;19.70;;;;;;;6.96;100.00;100813.09;5090935;28;20909;-61
2022/11/30 03:48:01;;;;;;;44.30;20.30;;;;;;;6.95;100.00;100817.56;5103441;28;20500;-61
2022/11/30 03:50:27;;;;;;;40.60;18.50;;;;;;;7.01;100.00;100812.78;5091867;28;20535;-61
2022/11/30 03:52:54;;;;;;;37.00;19.07;;;;;;;7.04;100.00;100813.44;5092515;28;20479;-61
2022/11/30 03:55:22;;;;;;;35.03;18.90;;;;;;;7.10;100.00;100812.16;5083392;28;20547;-60
2022/11/30 03:57:48;;;;;;;39.83;20.07;;;;;;;7.05;100.00;100814.28;5090449;28;20543;-61
2022/11/30 04:00:16;;;;;;;35.00;18.27;;;;;;;7.05;100.00;100814.28;5103661;28;20563;-61
2022/11/30 04:02:42;;;;;;;36.17;19.50;;;;;;;7.05;100.00;100816.94;5096449;28;20543;-61
2022/11/30 04:05:09;;;;;;;38.23;19.87;;;;;;;7.03;100.00;100816.19;5083216;28;20547;-61
2022/11/30 04:07:36;;;;;;;34.23;18.40;;;;;;;6.98;100.00;100819.19;5095880;28;20488;-60
2022/11/30 04:10:02;;;;;;;35.40;17.73;;;;;;;7.12;100.00;100819.09;5095038;28;20482;-61
2022/11/30 04:12:30;;;;;;;31.20;17.00;;;;;;;7.16;100.00;100817.91;5098098;28;20544;-60
2022/11/30 04:14:57;;;;;;;36.97;16.73;;;;;;;7.10;100.00;100825.44;5082828;28;21062;-61
2022/11/30 04:17:23;;;;;;;35.40;17.00;;;;;;;7.07;100.00;100823.84;5079262;28;21004;-61
2022/11/30 04:19:50;;;;;;;33.77;18.43;;;;;;;7.10;100.00;100821.00;5083795;28;20918;-60
2022/11/30 04:22:16;;;;;;;31.43;17.40;;;;;;;7.14;100.00;100827.81;5103298;28;20543;-60
2022/11/30 04:24:43;;;;;;;27.00;16.07;;;;;;;7.23;100.00;100822.81;5101847;28;20479;-61
2022/11/30 04:27:09;;;;;;;28.30;15.40;;;;;;;7.17;100.00;100818.78;5101154;28;20542;-60
2022/11/30 04:29:37;;;;;;;25.00;14.47;;;;;;;7.14;100.00;100824.31;5095396;28;20499;-61
2022/11/30 04:32:04;;;;;;;26.40;13.13;;;;;;;7.10;100.00;100822.78;5082399;28;20492;-61
2022/11/30 04:34:31;;;;;;;24.20;12.83;;;;;;;7.06;100.00;100826.63;5082993;28;21072;-61
2022/11/30 04:36:57;;;;;;;26.03;13.20;;;;;;;7.07;100.00;100823.03;5082232;28;20511;-61
2022/11/30 04:39:24;;;;;;;27.40;13.93;;;;;;;7.09;100.00;100826.41;5083185;28;20472;-61
2022/11/30 04:41:50;;;;;;;20.97;13.00;;;;;;;7.18;100.00;100822.28;5077903;28;20500;-61
2022/11/30 04:44:17;;;;;;;21.47;12.13;;;;;;;7.11;100.00;100820.03;5082278;28;20508;-61
2022/11/30 04:46:45;;;;;;;24.53;12.20;;;;;;;7.13;100.00;100830.56;5082415;28;20487;-61
2022/11/30 04:49:11;;;;;;;22.50;11.90;;;;;;;7.11;100.00;100837.78;5091584;28;20490;-60
2022/11/30 04:51:38;;;;;;;19.53;12.03;;;;;;;7.15;100.00;100834.84;5102544;28;21033;-61
2022/11/30 04:54:04;;;;;;;23.87;13.37;;;;;;;7.16;100.00;100830.38;5083252;28;20512;-61
2022/11/30 04:56:31;;;;;;;17.40;11.50;;;;;;;7.17;100.00;100826.75;5082671;28;20567;-61
2022/11/30 04:58:58;;;;;;;19.10;11.80;;;;;;;7.12;100.00;100835.03;5092742;28;20499;-61
2022/11/30 05:01:24;;;;;;;17.87;10.87;;;;;;;7.09;100.00;100835.25;5095446;28;20503;-61
2022/11/30 05:03:52;;;;;;;19.10;11.13;;;;;;;7.15;100.00;100828.66;5069411;28;20556;-61
2022/11/30 05:06:19;;;;;;;20.73;11.77;;;;;;;7.15;100.00;100831.31;5072553;28;20499;-61
2022/11/30 05:08:45;;;;;;;22.83;11.30;;;;;;;7.16;100.00;100827.69;5101703;28;20471;-60
2022/11/30 05:11:12;;;;;;;16.07;10.00;;;;;;;7.24;100.00;100837.81;5099942;28;20549;-60
2022/11/30 05:13:38;;;;;;;19.60;10.93;;;;;;;7.19;100.00;100837.25;5102142;28;20529;-60
2022/11/30 05:16:05;;;;;;;15.03;9.77;;;;;;;7.27;100.00;100833.13;5095512;28;21115;-60
2022/11/30 05:18:35;;;;;;;14.60;9.70;;;;;;;6.99;100.00;100836.81;5083905;28;20491;-60
2022/11/30 05:21:03;;;;;;;13.00;9.07;;;;;;;6.74;100.00;100841.13;5087692;28;20542;-60
2022/11/30 05:23:29;;;;;;;13.43;9.83;;;;;;;6.56;100.00;100845.84;5093789;28;20483;-61
2022/11/30 05:25:56;;;;;;;13.00;8.97;;;;;;;6.56;100.00;100845.84;5062904;28;20580;-61
2022/11/30 05:28:22;;;;;;;14.07;9.40;;;;;;;6.57;100.00;100854.66;5080251;28;20496;-60
2022/11/30 05:30:49;;;;;;;16.13;9.00;;;;;;;6.56;100.00;100853.81;5083976;28;20513;-60
2022/11/30 05:33:16;;;;;;;12.90;8.90;;;;;;;6.74;100.00;100849.09;5081625;28;20624;-61
2022/11/30 05:35:43;;;;;;;14.70;9.07;;;;;;;6.76;100.00;100854.31;5083141;28;20525;-68
2022/11/30 05:38:11;;;;;;;13.63;9.63;;;;;;;6.92;100.00;100854.13;5089601;28;20944;-69
2022/11/30 05:40:37;;;;;;;14.80;9.07;;;;;;;6.95;100.00;100860.09;5088177;28;20541;-69
2022/11/30 05:43:04;;;;;;;13.50;8.80;;;;;;;7.06;100.00;100859.38;5078256;28;20491;-68
2022/11/30 05:45:31;;;;;;;13.77;9.33;;;;;;;7.03;100.00;100866.69;5071672;28;20551;-67
2022/11/30 05:47:58;;;;;;;11.57;8.77;;;;;;;7.01;100.00;100863.28;5090812;28;20495;-66
2022/11/30 05:50:24;;;;;;;12.30;9.70;;;;;;;6.98;100.00;100867.88;5081606;28;20511;-65
2022/11/30 05:52:53;;;;;;;14.13;10.23;;;;;;;6.97;100.00;100865.31;5096083;28;20462;-66
2022/11/30 05:55:22;;;;;;;12.53;8.40;;;;;;;6.95;100.00;100873.38;5100852;28;20570;-66
2022/11/30 05:57:48;;;;;;;10.97;8.00;;;;;;;7.05;100.00;100870.97;5101391;28;20452;-66
2022/11/30 06:00:16;;;;;;;12.67;9.13;;;;;;;7.11;100.00;100873.22;5086549;28;20968;-66
2022/11/30 06:02:42;;;;;;;20.00;9.80;;;;;;;6.96;100.00;100879.53;5100709;28;20456;-66
2022/11/30 06:05:09;;;;;;;12.43;7.80;;;;;;;7.04;100.00;100876.41;5082370;28;21046;-66
2022/11/30 06:07:36;;;;;;;11.37;8.00;;;;;;;7.00;100.00;100877.56;5084729;28;20481;-66
2022/11/30 06:10:03;;;;;;;10.67;8.20;;;;;;;6.91;100.00;100879.88;5082813;28;20464;-66
2022/11/30 06:12:31;;;;;;;11.57;8.17;;;;;;;6.92;100.00;100878.06;5078405;28;21116;-65
2022/11/30 06:14:58;;;;;;;11.57;7.40;;;;;;;6.88;100.00;100881.88;5076127;28;20480;-66
2022/11/30 06:17:24;;;;;;;10.57;7.67;;;;;;;6.94;100.00;100882.34;5076951;28;20900;-65
2022/11/30 06:19:51;;;;;;;8.10;6.93;;;;;;;7.06;100.00;100874.47;5092430;28;20468;-66
2022/11/30 06:22:18;;;;;;;12.43;8.87;;;;;;;7.03;100.00;100880.00;5092964;28;20487;-65
2022/11/30 06:24:44;;;;;;;11.43;8.03;;;;;;;7.04;100.00;100877.22;5085075;28;20481;-66
2022/11/30 06:27:11;;;;;;;10.80;8.60;;;;;;;6.99;100.00;100874.03;5100228;28;20514;-66
2022/11/30 06:29:39;;;;;;;11.97;8.10;;;;;;;6.98;100.00;100882.97;5076878;28;20468;-65
2022/11/30 06:32:07;;;;;;;10.33;7.33;;;;;;;7.01;100.00;100881.91;5083649;28;20504;-66
2022/11/30 06:34:33;;;;;;;11.07;8.03;;;;;;;7.03;100.00;100891.50;5098006;28;20558;-66
2022/11/30 06:37:00;;;;;;;10.90;8.00;;;;;;;7.05;100.00;100883.41;5078484;28;20504;-66
2022/11/30 06:39:27;;;;;;;10.40;8.17;;;;;;;7.00;100.00;100886.38;5085304;28;20478;-66
2022/11/30 06:41:53;;;;;;;8.50;7.27;;;;;;;7.01;100.00;100889.88;5084212;28;20512;-66
2022/11/30 06:44:20;;;;;;;8.10;7.13;;;;;;;7.02;100.00;100895.09;5093804;28;20873;-66
2022/11/30 06:46:48;;;;;;;9.17;7.37;;;;;;;6.81;100.00;100894.72;5091488;28;20507;-65
2022/11/30 06:49:15;;;;;;;8.73;7.83;;;;;;;6.59;100.00;100900.56;5079775;28;20504;-65
2022/11/30 06:51:42;;;;;;;10.57;8.10;;;;;;;6.70;100.00;100899.88;5080821;28;20488;-65
2022/11/30 06:54:09;;;;;;;8.70;6.63;;;;;;;6.83;100.00;100906.09;5079930;28;20941;-66
2022/11/30 06:56:35;;;;;;;9.20;7.43;;;;;;;6.86;100.00;100905.91;5079977;28;20479;-66
2022/11/30 06:59:02;;;;;;;8.60;7.07;;;;;;;6.88;100.00;100911.13;5080120;28;20456;-66
2022/11/30 07:01:29;;;;;;;9.17;6.77;;;;;;;6.94;100.00;100902.72;5079114;28;20500;-66
2022/11/30 07:03:57;;;;;;;9.83;7.33;;;;;;;6.96;100.00;100914.97;5079667;28;21036;-65
2022/11/30 07:06:23;;;;;;;12.33;7.80;;;;;;;6.72;100.00;100911.28;5077887;28;20504;-66
2022/11/30 07:08:50;;;;;;;8.70;7.40;;;;;;;6.67;100.00;100916.88;5080036;28;20482;-66
2022/11/30 07:11:17;;;;;;;9.40;7.70;;;;;;;6.75;100.00;100914.59;5080027;28;20480;-66
2022/11/30 07:13:44;;;;;;;10.07;7.73;;;;;;;6.83;100.00;100914.06;5079904;28;20485;-66
2022/11/30 07:16:11;;;;;;;8.87;7.33;;;;;;;6.65;100.00;100910.81;5079586;28;20484;-66
2022/11/30 07:18:38;;;;;;;9.07;7.73;;;;;;;6.83;100.00;100913.22;5079680;28;20476;-66
2022/11/30 07:21:07;;;;;;;10.77;7.93;;;;;;;6.60;100.00;100919.06;5079411;28;20464;-66
2022/11/30 07:26:18;;;;;;;8.23;7.43;;;;;;;6.73;100.00;100920.94;5079536;28;20864;-66
2022/11/30 07:28:46;;;;;;;10.57;8.00;;;;;;;6.83;100.00;100922.03;5077678;28;20468;-66
2022/11/30 07:31:14;;;;;;;8.10;7.23;;;;;;;6.90;100.00;100925.16;5078894;28;20504;-66
2022/11/30 07:33:41;;;;;;;8.10;7.10;;;;;;;6.89;100.00;100928.75;5083447;28;20454;-66
2022/11/30 07:36:10;;;;;;;7.80;6.67;;;;;;;6.88;100.00;100930.56;5083020;28;20544;-66
2022/11/30 07:38:37;;;;;;;7.83;6.53;;;;;;;6.87;100.00;100930.66;5083484;28;21242;-66
2022/11/30 07:41:04;;;;;;;8.37;7.10;;;;;;;6.86;100.00;100928.97;5083016;28;20488;-66
2022/11/30 07:43:31;;;;;;;11.70;7.47;;;;;;;6.88;100.00;100932.38;5069501;28;20441;-66
2022/11/30 07:45:58;;;;;;;7.90;6.60;;;;;;;6.92;100.00;100928.56;5062283;28;20895;-66
2022/11/30 07:48:25;;;;;;;9.50;7.77;;;;;;;6.94;100.00;100934.63;5082374;28;20433;-66
2022/11/30 07:50:51;;;;;;;8.63;7.43;;;;;;;6.95;100.00;100933.69;5082430;28;20492;-66
2022/11/30 07:53:19;;;;;;;8.87;7.30;;;;;;;6.86;100.00;100934.28;5081950;28;20484;-66
2022/11/30 07:55:46;;;;;;;7.63;6.73;;;;;;;6.77;100.00;100938.38;5082037;28;20507;-66
2022/11/30 07:58:13;;;;;;;8.17;7.23;;;;;;;6.92;100.00;100945.34;5081467;28;21127;-66
2022/11/30 08:00:40;;;;;;;7.73;6.93;;;;;;;6.95;100.00;100947.81;5080851;28;20483;-66
2022/11/30 08:03:06;;;;;;;11.60;8.00;;;;;;;6.99;100.00;100956.44;5082432;28;20933;-66
2022/11/30 08:05:33;;;;;;;9.70;7.90;;;;;;;7.02;100.00;100947.44;5081610;28;20515;-66
2022/11/30 08:07:59;;;;;;;8.37;6.60;;;;;;;7.07;100.00;100950.66;5081526;28;20440;-66
2022/11/30 08:10:27;;;;;;;8.07;7.27;;;;;;;7.09;100.00;100957.56;5082123;28;20539;-66
2022/11/30 08:12:54;;;;;;;8.60;7.80;;;;;;;7.19;100.00;100956.94;5099156;28;21267;-66
2022/11/30 08:15:21;;;;;;;8.13;6.87;;;;;;;7.18;100.00;100950.78;5082659;28;20484;-66
2022/11/30 08:17:53;;;;;;;7.73;6.93;;;;;;;7.16;100.00;100947.38;5085086;28;20471;-66
2022/11/30 08:20:19;;;;;;;8.80;7.73;;;;;;;6.90;100.00;100946.41;5081273;28;20429;-66
2022/11/30 08:22:46;;;;;;;8.20;6.83;;;;;;;6.97;100.00;100953.03;5081251;28;20818;-66
2022/11/30 08:25:13;;;;;;;11.10;7.87;;;;;;;7.07;100.00;100951.50;5081098;28;20456;-66
2022/11/30 08:27:41;;;;;;;9.70;6.93;;;;;;;7.06;100.00;100960.41;5081926;28;20440;-66
2022/11/30 08:30:09;;;;;;;9.67;7.73;;;;;;;7.18;100.00;100961.41;5080165;28;20448;-66
2022/11/30 08:32:35;;;;;;;11.47;8.97;;;;;;;7.24;100.00;100961.00;5079023;28;20515;-66
2022/11/30 08:35:02;;;;;;;9.90;7.13;;;;;;;7.27;100.00;100967.94;5081909;28;20555;-66
2022/11/30 08:37:28;;;;;;;10.80;7.50;;;;;;;7.27;100.00;100962.59;5080288;28;20502;-66
2022/11/30 08:39:55;;;;;;;8.80;7.30;;;;;;;7.24;100.00;100971.66;5082226;28;20497;-66
2022/11/30 08:42:21;;;;;;;12.37;8.47;;;;;;;7.00;100.00;100968.78;5080764;28;20476;-66
2022/11/30 08:44:49;;;;;;;10.67;8.60;;;;;;;6.91;100.00;100970.25;5079538;28;21095;-66
2022/11/30 08:47:16;;;;;;;9.17;8.00;;;;;;;6.96;100.00;100973.47;5088386;28;20499;-65
2022/11/30 08:49:43;;;;;;;9.80;8.73;;;;;;;7.06;100.00;100973.69;5088726;28;20502;-66
2022/11/30 08:52:09;;;;;;;12.60;8.93;;;;;;;7.15;100.00;100978.44;5080611;28;20487;-66
2022/11/30 08:54:41;;;;;;;11.63;8.80;;;;;;;7.22;100.00;100980.69;5080298;28;20484;-66
2022/11/30 08:57:07;;;;;;;11.20;9.37;;;;;;;7.08;100.00;100990.44;5088587;28;20673;-66
2022/11/30 08:59:34;;;;;;;14.10;9.47;;;;;;;7.22;100.00;100980.69;5080011;28;20453;-66
2022/11/30 09:02:02;;;;;;;12.03;9.83;;;;;;;7.11;100.00;100992.88;5083340;28;20479;-66
2022/11/30 09:04:29;;;;;;;25.93;15.80;;;;;;;6.90;100.00;100992.44;5080520;28;20468;-64
2022/11/30 09:06:57;;;;;;;27.47;15.87;;;;;;;6.77;100.00;100989.75;5079918;28;20482;-65
2022/11/30 09:09:24;;;;;;;26.83;17.63;;;;;;;6.69;100.00;100994.69;5079266;28;20564;-65
2022/11/30 09:11:51;;;;;;;21.30;14.20;;;;;;;6.48;100.00;100998.69;5088437;28;20488;-65
2022/11/30 09:14:17;;;;;;;20.83;15.03;;;;;;;6.49;100.00;100995.06;5079522;28;20486;-65
2022/11/30 09:16:44;;;;;;;22.80;15.87;;;;;;;6.38;100.00;100999.25;5079928;28;20571;-65
2022/11/30 09:19:12;;;;;;;22.33;16.37;;;;;;;6.47;100.00;101011.09;5080643;28;20873;-65
2022/11/30 09:21:39;;;;;;;23.80;14.83;;;;;;;6.44;100.00;101003.34;5079485;28;20504;-65
2022/11/30 09:24:06;;;;;;;23.90;14.47;;;;;;;6.49;100.00;101011.88;5080675;28;20463;-66
2022/11/30 09:26:32;;;;;;;22.50;13.57;;;;;;;6.66;100.00;101009.97;5084011;28;20554;-65
2022/11/30 09:29:00;;;;;;;18.20;13.60;;;;;;;6.84;100.00;101002.63;5078997;28;20448;-66
2022/11/30 09:31:27;;;;;;;18.30;14.10;;;;;;;6.94;100.00;101004.63;5096698;28;20525;-66
2022/11/30 09:33:56;;;;;;;28.03;15.33;;;;;;;6.76;100.00;100997.81;5080828;28;20705;-65
2022/11/30 09:36:26;;;;;;;25.53;14.50;;;;;;;7.01;100.00;101006.84;5071216;28;20552;-65
2022/11/30 09:38:53;;;;;;;24.40;14.23;;;;;;;6.74;100.00;101002.38;5080652;28;20943;-66
2022/11/30 09:41:34;;;;;;;24.13;15.53;;;;;;;6.54;100.00;101003.63;5080009;28;20468;-66
2022/11/30 09:44:05;;;;;;;20.50;14.43;;;;;;;6.77;100.00;101008.34;5093604;28;20515;-66
2022/11/30 09:46:37;;;;;;;22.93;14.33;;;;;;;6.45;100.00;101013.00;5091775;28;20547;-65
2022/11/30 09:49:07;;;;;;;24.00;15.43;;;;;;;6.68;100.00;101010.72;5081434;28;20512;-65
2022/11/30 09:51:44;;;;;;;24.77;14.90;;;;;;;6.57;100.00;101003.44;5082791;28;20504;-65
2022/11/30 09:54:13;;;;;;;29.20;16.70;;;;;;;6.48;100.00;101020.78;5092606;28;20444;-65
2022/11/30 09:56:40;;;;;;;26.10;15.53;;;;;;;6.77;100.00;101018.97;5079669;28;20481;-65
2022/11/30 09:59:12;;;;;;;22.20;15.70;;;;;;;6.97;100.00;101017.69;5078774;28;20450;-65
2022/11/30 10:01:38;;;;;;;28.13;16.27;;;;;;;6.67;100.00;101014.34;5079112;28;20475;-66
2022/11/30 10:04:05;;;;;;;23.80;15.90;;;;;;;6.44;100.00;101018.41;5079608;28;20468;-65
2022/11/30 10:06:41;;;;;;;31.47;17.10;;;;;;;6.33;100.00;101011.97;5082664;28;20475;-65
2022/11/30 10:09:26;;;;;;;29.93;16.60;;;;;;;6.37;100.00;101018.81;5080510;28;20457;-65
2022/11/30 10:11:58;;;;;;;28.37;18.20;;;;;;;6.35;100.00;101023.38;5079256;28;20534;-65
2022/11/30 10:14:33;;;;;;;30.73;18.70;;;;;;;6.21;100.00;101021.56;5077422;28;20487;-65
2022/11/30 10:17:06;;;;;;;26.63;18.40;;;;;;;6.66;100.00;101023.25;5079494;28;20561;-65
2022/11/30 10:19:46;;;;;;;30.37;18.37;;;;;;;6.55;100.00;101031.91;5080256;28;20467;-65
2022/11/30 10:22:20;;;;;;;26.43;18.90;;;;;;;6.30;100.00;101020.16;5077721;28;20503;-65
2022/11/30 10:25:00;;;;;;;31.00;19.27;;;;;;;6.53;100.00;101023.19;5076982;28;20464;-65
2022/11/30 10:27:37;;;;;;;33.43;18.73;;;;;;;6.63;100.00;101023.44;5079968;28;20485;-65
2022/11/30 10:30:13;;;;;;;31.40;18.83;;;;;;;6.25;100.00;101016.03;5088060;28;20463;-65
2022/11/30 10:32:41;;;;;;;36.00;20.17;;;;;;;6.36;100.00;101022.41;5079853;28;20969;-65
2022/11/30 10:35:17;;;;;;;31.30;20.30;;;;;;;6.73;100.00;101022.75;5089401;28;20459;-65
2022/11/30 10:37:46;;;;;;;35.00;21.30;;;;;;;6.25;100.00;101024.00;5081066;28;20504;-65
2022/11/30 10:40:17;;;;;;;35.77;19.87;;;;;;;6.14;100.00;101019.34;5079232;28;20443;-65
2022/11/30 10:42:48;;;;;;;34.67;18.60;;;;;;;6.56;100.00;101017.66;5091765;28;21195;-65
2022/11/30 10:45:18;;;;;;;28.97;19.30;;;;;;;6.57;100.00;101016.72;5073651;28;20672;-65
2022/11/30 10:47:51;;;;;;;29.87;19.97;;;;;;;6.60;100.00;101019.19;5067633;28;20467;-66
2022/11/30 10:50:18;;;;;;;30.50;19.63;;;;;;;6.71;100.00;101003.41;5077121;28;20440;-65
2022/11/30 10:52:48;;;;;;;33.07;20.67;;;;;;;6.54;100.00;101020.41;5089854;28;20999;-65
2022/11/30 10:55:21;;;;;;;27.87;18.77;;;;;;;6.25;100.00;101013.38;5078241;28;20456;-66
2022/11/30 10:57:50;;;;;;;26.53;19.87;;;;;;;6.46;100.00;101014.72;5058638;28;20437;-66
2022/11/30 11:00:18;;;;;;;39.37;20.70;;;;;;;6.57;100.00;101008.75;5088984;28;20463;-66
2022/11/30 11:02:46;;;;;;;28.40;18.63;;;;;;;6.75;100.00;101006.72;5095357;28;20439;-66
2022/11/30 11:05:20;;;;;;;34.47;21.10;;;;;;;6.36;100.00;101010.94;5097427;28;20448;-66
2022/11/30 11:07:54;;;;;;;32.70;20.23;;;;;;;6.71;100.00;101008.72;5089060;28;20821;-66
2022/11/30 11:10:25;;;;;;;37.67;23.00;;;;;;;6.78;100.00;101004.72;5082813;28;20466;-66
2022/11/30 11:12:54;;;;;;;35.60;22.17;;;;;;;6.71;100.00;101003.41;5084075;28;20460;-67
2022/11/30 11:15:22;;;;;;;33.70;21.63;;;;;;;6.81;100.00;101003.69;5081754;28;20490;-66
2022/11/30 11:17:50;;;;;;;28.90;21.00;;;;;;;6.72;100.00;100997.16;5097740;28;20451;-66